createdAt,value
2022-10-20T00:01:25.258Z,100298.69
2022-10-20T00:03:52.233Z,100296.13
2022-10-20T00:06:20.669Z,100290.84
2022-10-20T00:08:47.974Z,100285.72
2022-10-20T00:11:16.295Z,100288.44
2022-10-20T00:13:44.075Z,100287.59
2022-10-20T00:16:10.580Z,100274.59
2022-10-20T00:18:37.240Z,100282.53
2022-10-20T00:21:07.788Z,100288.75
2022-10-20T00:23:34.410Z,100274.75
2022-10-20T00:26:01.775Z,100268.56
2022-10-20T00:28:28.204Z,100265.09
2022-10-20T00:30:56.072Z,100259.84
2022-10-20T00:33:23.024Z,100262.44
2022-10-20T00:35:49.508Z,100255.41
2022-10-20T00:38:15.976Z,100258.03
2022-10-20T00:40:42.576Z,100252.78
2022-10-20T00:43:12.948Z,100238.78
2022-10-20T00:45:39.775Z,100232.66
2022-10-20T00:48:08.245Z,100227.47
2022-10-20T00:50:38.666Z,100230.09
2022-10-20T00:53:05.605Z,100226.69
2022-10-20T00:55:34.068Z,100216.25
2022-10-20T00:58:01.021Z,100212.75
2022-10-20T01:00:28.314Z,100210.22
2022-10-20T01:02:56.370Z,100215.47
2022-10-20T01:05:23.344Z,100208.56
2022-10-20T01:07:50.067Z,100202.53
2022-10-20T01:10:17.253Z,100207.03
2022-10-20T01:13:02.372Z,100203.53
2022-10-20T01:15:41.475Z,100200.09
2022-10-20T01:18:14.759Z,100207.16
2022-10-20T01:20:47.405Z,100198.41
2022-10-20T01:23:29.386Z,100199.34
2022-10-20T01:26:28.357Z,100198.41
2022-10-20T01:28:57.596Z,100200.09
2022-10-20T01:31:24.019Z,100197.41
2022-10-20T01:33:56.202Z,100179.84
2022-10-20T01:36:28.791Z,100177.97
2022-10-20T01:39:00.673Z,100173.59
2022-10-20T01:41:34.050Z,100166.56
2022-10-20T01:44:03.296Z,100153.22
2022-10-20T01:46:30.630Z,100146.28
2022-10-20T01:48:57.563Z,100145.34
2022-10-20T01:51:24.071Z,100140.13
2022-10-20T01:53:50.503Z,100134.13
2022-10-20T01:56:20.122Z,100143.78
2022-10-20T01:59:05.291Z,100139.53
2022-10-20T02:01:40.468Z,100138.69
2022-10-20T02:04:08.389Z,100122.91
2022-10-20T02:06:43.115Z,100128.16
2022-10-20T02:09:24.277Z,100129.94
2022-10-20T02:12:01.380Z,100126.44
2022-10-20T02:14:28.744Z,100131.69
2022-10-20T02:16:59.219Z,100132.63
2022-10-20T02:19:27.540Z,100126.44
2022-10-20T02:21:55.510Z,100123.81
2022-10-20T02:24:23.679Z,100121.19
2022-10-20T02:26:51.707Z,100124.75
2022-10-20T02:29:20.372Z,100119.63
2022-10-20T02:31:48.185Z,100117.09
2022-10-20T02:34:14.764Z,100125.06
2022-10-20T02:36:42.718Z,100121.63
2022-10-20T02:39:09.710Z,100120.88
2022-10-20T02:41:36.739Z,100113.13
2022-10-20T02:44:03.587Z,100112.44
2022-10-20T02:46:30.061Z,100115.06
2022-10-20T02:48:56.532Z,100103.75
2022-10-20T02:51:22.922Z,100095.94
2022-10-20T02:53:50.037Z,100081.16
2022-10-20T02:56:16.603Z,100072.59
2022-10-20T02:58:43.139Z,100063.16
2022-10-20T03:01:09.571Z,100062.44
2022-10-20T03:03:36.080Z,100065.28
2022-10-20T03:06:10.087Z,100060.19
2022-10-20T03:08:36.676Z,100049.84
2022-10-20T03:11:03.366Z,100044.72
2022-10-20T03:16:01.745Z,100031.88
2022-10-20T03:18:28.236Z,100022.34
2022-10-20T03:20:54.860Z,100023.34
2022-10-20T03:23:21.785Z,100022.59
2022-10-20T03:25:48.410Z,100018.34
2022-10-20T03:28:15.441Z,100014.84
2022-10-20T03:30:41.931Z,100028.06
2022-10-20T03:33:08.574Z,100012.34
2022-10-20T03:35:35.121Z,100007.09
2022-10-20T03:38:01.596Z,100013.22
2022-10-20T03:40:28.078Z,100012.34
2022-10-20T03:42:54.577Z,100009.72
2022-10-20T03:45:21.305Z,100001.84
2022-10-20T03:47:47.886Z,100005.41
2022-10-20T03:50:14.604Z,100002.78
2022-10-20T03:52:41.084Z,100005.41
2022-10-20T03:55:07.765Z,100001.09
2022-10-20T03:57:34.692Z,99996.75
2022-10-20T04:00:01.406Z,99981.81
2022-10-20T04:02:34.060Z,99988.88
2022-10-20T04:05:01.327Z,99977.50
2022-10-20T04:07:27.834Z,99982.75
2022-10-20T04:09:54.424Z,99985.38
2022-10-20T04:12:20.941Z,99979.19
2022-10-20T04:14:47.712Z,99977.44
2022-10-20T04:17:14.209Z,99965.16
2022-10-20T04:19:40.968Z,99963.34
2022-10-20T04:22:07.530Z,99959.81
2022-10-20T04:24:34.100Z,99946.66
2022-10-20T04:27:00.635Z,99955.41
2022-10-20T04:29:27.247Z,99947.53
2022-10-20T04:31:53.816Z,99945.75
2022-10-20T04:34:20.537Z,99930.88
2022-10-20T04:36:47.064Z,99931.75
2022-10-20T04:39:13.673Z,99930.88
2022-10-20T04:41:40.170Z,99922.09
2022-10-20T04:44:06.654Z,99919.47
2022-10-20T04:46:33.110Z,99912.41
2022-10-20T04:48:59.638Z,99903.72
2022-10-20T04:51:26.194Z,99898.44
2022-10-20T04:53:53.894Z,99897.59
2022-10-20T04:56:21.772Z,99890.66
2022-10-20T04:58:58.321Z,99897.66
2022-10-20T05:01:26.516Z,99895.97
2022-10-20T05:03:53.259Z,99892.47
2022-10-20T05:06:21.431Z,99889.03
2022-10-20T05:08:49.252Z,99890.78
2022-10-20T05:11:16.582Z,99881.13
2022-10-20T05:13:43.360Z,99887.22
2022-10-20T05:16:10.783Z,99886.41
2022-10-20T05:18:37.294Z,99882.84
2022-10-20T05:21:09.712Z,99882.84
2022-10-20T05:23:37.089Z,99868.75
2022-10-20T05:26:07.906Z,99868.69
2022-10-20T05:28:34.387Z,99852.91
2022-10-20T05:31:06.051Z,99849.34
2022-10-20T05:33:32.924Z,99847.66
2022-10-20T05:35:59.760Z,99845.91
2022-10-20T05:38:26.351Z,99843.25
2022-10-20T05:40:52.865Z,99840.63
2022-10-20T05:43:19.388Z,99844.16
2022-10-20T05:45:45.836Z,99843.34
2022-10-20T05:48:12.500Z,99839.84
2022-10-20T05:50:39.237Z,99831.13
2022-10-20T05:53:05.820Z,99835.53
2022-10-20T05:55:32.865Z,99832.91
2022-10-20T05:57:59.393Z,99825.88
2022-10-20T06:00:31.028Z,99820.53
2022-10-20T06:02:57.991Z,99814.44
2022-10-20T06:05:24.676Z,99811.81
2022-10-20T06:07:52.921Z,99806.56
2022-10-20T06:10:19.366Z,99799.50
2022-10-20T06:12:45.857Z,99792.53
2022-10-20T06:15:12.415Z,99792.53
2022-10-20T06:17:38.961Z,99785.53
2022-10-20T06:20:05.663Z,99782.81
2022-10-20T06:22:32.097Z,99780.13
2022-10-20T06:24:58.580Z,99789.69
2022-10-20T06:27:25.122Z,99788.69
2022-10-20T06:29:52.625Z,99789.44
2022-10-20T06:32:19.065Z,99777.06
2022-10-20T06:34:45.696Z,99783.00
2022-10-20T06:37:13.056Z,99778.63
2022-10-20T06:39:39.636Z,99778.47
2022-10-20T06:42:09.639Z,99778.34
2022-10-20T06:44:38.635Z,99774.72
2022-10-20T06:47:10.114Z,99768.47
2022-10-20T06:49:36.664Z,99777.97
2022-10-20T06:52:03.340Z,99776.09
2022-10-20T06:54:29.950Z,99775.84
2022-10-20T06:56:56.391Z,99776.53
2022-10-20T06:59:22.843Z,99773.75
2022-10-20T07:01:49.386Z,99787.47
2022-10-20T07:04:16.246Z,99788.16
2022-10-20T07:06:43.575Z,99780.03
2022-10-20T07:09:14.006Z,99785.88
2022-10-20T07:11:40.677Z,99780.25
2022-10-20T07:14:07.223Z,99773.06
2022-10-20T07:16:34.612Z,99778.84
2022-10-20T07:19:01.508Z,99770.66
2022-10-20T07:21:32.437Z,99769.56
2022-10-20T07:24:03.507Z,99766.72
2022-10-20T07:26:31.928Z,99765.63
2022-10-20T07:28:59.936Z,99781.13
2022-10-20T07:31:32.395Z,99772.97
2022-10-20T07:34:06.880Z,99768.28
2022-10-20T07:36:35.920Z,99764.56
2022-10-20T07:39:04.649Z,99761.75
2022-10-20T07:41:31.362Z,99764.97
2022-10-20T07:43:58.162Z,99770.81
2022-10-20T07:46:25.047Z,99770.63
2022-10-20T07:48:51.524Z,99780.06
2022-10-20T07:51:18.114Z,99786.84
2022-10-20T07:53:44.794Z,99788.28
2022-10-20T07:56:11.456Z,99772.19
2022-10-20T07:58:37.972Z,99777.94
2022-10-20T08:01:05.053Z,99777.69
2022-10-20T08:03:31.630Z,99777.31
2022-10-20T08:05:58.058Z,99762.09
2022-10-20T08:08:24.648Z,99767.94
2022-10-20T08:10:51.147Z,99765.88
2022-10-20T08:13:17.677Z,99762.84
2022-10-20T08:15:44.272Z,99758.16
2022-10-20T08:18:10.835Z,99760.41
2022-10-20T08:20:37.361Z,99752.13
2022-10-20T08:23:03.936Z,99744.78
2022-10-20T08:25:30.386Z,99742.72
2022-10-20T08:30:24.352Z,99742.03
2022-10-20T08:32:52.111Z,99730.28
2022-10-20T08:35:18.777Z,99735.22
2022-10-20T08:37:45.283Z,99734.00
2022-10-20T08:40:16.387Z,99736.38
2022-10-20T08:42:45.218Z,99739.50
2022-10-20T08:45:15.584Z,99740.78
2022-10-20T08:47:43.151Z,99735.94
2022-10-20T08:50:12.521Z,99726.78
2022-10-20T08:52:41.545Z,99723.66
2022-10-20T08:55:10.425Z,99734.56
2022-10-20T08:57:37.063Z,99726.16
2022-10-20T09:00:23.866Z,99719.41
2022-10-20T09:02:50.942Z,99718.88
2022-10-20T09:05:21.048Z,99704.31
2022-10-20T09:07:51.584Z,99714.38
2022-10-20T09:10:33.932Z,99715.66
2022-10-20T09:13:01.078Z,99707.19
2022-10-20T09:15:28.590Z,99708.47
2022-10-20T09:18:03.711Z,99702.75
2022-10-20T09:20:38.639Z,99696.13
2022-10-20T09:23:16.500Z,99685.13
2022-10-20T09:25:52.439Z,99680.25
2022-10-20T09:28:23.591Z,99679.09
2022-10-20T09:30:50.314Z,99671.78
2022-10-20T09:33:21.752Z,99674.00
2022-10-20T09:35:48.954Z,99667.56
2022-10-20T09:38:29.679Z,99671.56
2022-10-20T09:40:59.188Z,99667.53
2022-10-20T09:43:26.066Z,99673.97
2022-10-20T09:45:58.644Z,99671.50
2022-10-20T09:48:27.684Z,99668.06
2022-10-20T09:50:56.191Z,99670.03
2022-10-20T09:53:28.446Z,99666.50
2022-10-20T09:55:55.516Z,99659.56
2022-10-20T09:58:27.263Z,99663.22
2022-10-20T10:01:00.518Z,99665.91
2022-10-20T10:03:27.205Z,99660.75
2022-10-20T10:05:55.205Z,99661.78
2022-10-20T10:08:22.979Z,99653.97
2022-10-20T10:11:01.617Z,99652.44
2022-10-20T10:13:30.270Z,99643.78
2022-10-20T10:16:09.987Z,99638.84
2022-10-20T10:18:37.542Z,99636.31
2022-10-20T10:21:11.752Z,99629.69
2022-10-20T10:23:55.273Z,99631.00
2022-10-20T10:26:40.570Z,99622.56
2022-10-20T10:29:15.342Z,99607.13
2022-10-20T10:31:47.037Z,99601.47
2022-10-20T10:34:13.428Z,99617.75
2022-10-20T10:36:39.933Z,99604.81
2022-10-20T10:39:12.004Z,99596.25
2022-10-20T10:41:44.512Z,99585.00
2022-10-20T10:44:17.655Z,99595.72
2022-10-20T10:46:53.331Z,99589.75
2022-10-20T10:49:25.710Z,99595.19
2022-10-20T10:52:15.204Z,99586.47
2022-10-20T10:54:41.937Z,99587.00
2022-10-20T10:57:20.541Z,99585.47
2022-10-20T10:59:49.242Z,99574.41
2022-10-20T11:02:18.665Z,99570.22
2022-10-20T11:05:03.643Z,99580.28
2022-10-20T11:07:45.901Z,99586.22
2022-10-20T11:10:21.096Z,99578.41
2022-10-20T11:12:53.688Z,99583.59
2022-10-20T11:15:39.053Z,99587.25
2022-10-20T11:18:28.555Z,99576.22
2022-10-20T11:20:58.102Z,99575.91
2022-10-20T11:23:24.546Z,99576.75
2022-10-20T11:26:10.217Z,99577.75
2022-10-20T11:28:44.160Z,99574.38
2022-10-20T11:31:23.265Z,99582.63
2022-10-20T11:33:54.556Z,99575.94
2022-10-20T11:36:23.918Z,99580.66
2022-10-20T11:38:51.560Z,99562.47
2022-10-20T11:41:19.169Z,99568.91
2022-10-20T11:43:55.254Z,99574.50
2022-10-20T11:46:27.990Z,99571.97
2022-10-20T11:48:57.358Z,99564.13
2022-10-20T11:51:29.702Z,99569.44
2022-10-20T11:54:08.281Z,99578.41
2022-10-20T11:56:53.264Z,99577.56
2022-10-20T11:59:38.501Z,99582.06
2022-10-20T12:02:20.330Z,99579.41
2022-10-20T12:04:49.610Z,99579.25
2022-10-20T12:07:25.110Z,99577.44
2022-10-20T12:10:10.499Z,99581.78
2022-10-20T12:12:48.334Z,99579.09
2022-10-20T12:15:19.870Z,99571.13
2022-10-20T12:17:46.743Z,99571.00
2022-10-20T12:20:22.069Z,99562.19
2022-10-20T12:22:50.617Z,99558.53
2022-10-20T12:25:37.450Z,99559.53
2022-10-20T12:28:22.767Z,99557.69
2022-10-20T12:30:56.681Z,99550.69
2022-10-20T12:33:35.455Z,99556.28
2022-10-20T12:36:17.357Z,99552.06
2022-10-20T12:38:53.755Z,99558.38
2022-10-20T12:41:26.330Z,99552.50
2022-10-20T12:43:54.053Z,99548.28
2022-10-20T12:46:27.606Z,99540.59
2022-10-20T12:49:00.307Z,99543.50
2022-10-20T12:51:26.802Z,99530.47
2022-10-20T12:54:16.477Z,99530.91
2022-10-20T12:56:43.356Z,99526.84
2022-10-20T12:59:21.902Z,99545.72
2022-10-20T13:02:06.931Z,99541.66
2022-10-20T13:04:52.093Z,99533.13
2022-10-20T13:07:37.645Z,99539.69
2022-10-20T13:10:24.290Z,99550.72
2022-10-20T13:12:50.853Z,99558.13
2022-10-20T13:15:19.889Z,99549.72
2022-10-20T13:17:57.678Z,99541.03
2022-10-20T13:20:30.207Z,99533.31
2022-10-20T13:22:57.111Z,99535.25
2022-10-20T13:25:34.453Z,99527.41
2022-10-20T13:28:05.004Z,99525.84
2022-10-20T13:30:32.943Z,99524.19
2022-10-20T13:36:01.319Z,99539.41
2022-10-20T13:38:39.817Z,99536.06
2022-10-20T13:41:17.958Z,99543.19
2022-10-20T13:43:44.448Z,99540.66
2022-10-20T13:46:31.875Z,99552.25
2022-10-20T13:49:01.282Z,99547.25
2022-10-20T13:51:29.861Z,99551.69
2022-10-20T13:53:59.143Z,99557.28
2022-10-20T13:56:34.876Z,99543.16
2022-10-20T13:59:06.447Z,99536.28
2022-10-20T14:01:34.807Z,99527.72
2022-10-20T14:04:01.903Z,99527.72
2022-10-20T14:06:32.355Z,99533.31
2022-10-20T14:08:59.748Z,99521.00
2022-10-20T14:11:29.531Z,99518.47
2022-10-20T14:13:57.058Z,99517.06
2022-10-20T14:16:26.265Z,99518.16
2022-10-20T14:19:06.659Z,99520.25
2022-10-20T14:21:42.314Z,99518.69
2022-10-20T14:24:14.088Z,99521.50
2022-10-20T14:26:44.090Z,99526.94
2022-10-20T14:29:12.763Z,99510.28
2022-10-20T14:31:39.346Z,99501.59
2022-10-20T14:34:05.903Z,99502.72
2022-10-20T14:36:33.084Z,99506.47
2022-10-20T14:39:01.037Z,99508.44
2022-10-20T14:41:31.994Z,99501.41
2022-10-20T14:44:12.195Z,99493.44
2022-10-20T14:46:47.020Z,99504.91
2022-10-20T14:49:24.543Z,99505.78
2022-10-20T14:51:56.796Z,99509.97
2022-10-20T14:54:28.251Z,99516.00
2022-10-20T14:57:03.134Z,99510.53
2022-10-20T14:59:32.084Z,99501.47
2022-10-20T15:02:02.536Z,99490.72
2022-10-20T15:04:32.131Z,99494.06
2022-10-20T15:07:21.800Z,99482.50
2022-10-20T15:10:14.325Z,99483.31
2022-10-20T15:12:42.955Z,99471.69
2022-10-20T15:15:12.549Z,99467.25
2022-10-20T15:17:40.668Z,99460.13
2022-10-20T15:20:25.851Z,99456.59
2022-10-20T15:22:54.718Z,99435.34
2022-10-20T15:25:22.016Z,99460.25
2022-10-20T15:27:48.656Z,99453.25
2022-10-20T15:30:22.498Z,99446.25
2022-10-20T15:32:49.398Z,99438.28
2022-10-20T15:35:18.944Z,99433.94
2022-10-20T15:37:49.504Z,99440.09
2022-10-20T15:40:16.122Z,99429.47
2022-10-20T15:42:42.778Z,99425.84
2022-10-20T15:45:14.651Z,99435.34
2022-10-20T15:47:41.122Z,99444.03
2022-10-20T15:50:07.687Z,99437.63
2022-10-20T15:52:34.359Z,99447.81
2022-10-20T15:55:01.073Z,99444.06
2022-10-20T15:57:27.705Z,99432.31
2022-10-20T15:59:54.145Z,99422.28
2022-10-20T16:02:21.088Z,99418.50
2022-10-20T16:04:47.507Z,99413.88
2022-10-20T16:07:13.926Z,99415.56
2022-10-20T16:09:40.364Z,99416.41
2022-10-20T16:12:06.818Z,99411.94
2022-10-20T16:14:33.799Z,99414.72
2022-10-20T16:17:00.212Z,99408.56
2022-10-20T16:19:26.910Z,99409.53
2022-10-20T16:21:53.362Z,99404.34
2022-10-20T16:24:19.766Z,99397.50
2022-10-20T16:26:46.203Z,99405.59
2022-10-20T16:29:12.834Z,99420.00
2022-10-20T16:31:39.508Z,99414.97
2022-10-20T16:34:06.025Z,99409.94
2022-10-20T16:36:32.799Z,99403.91
2022-10-20T16:39:00.856Z,99401.53
2022-10-20T16:41:27.385Z,99402.63
2022-10-20T16:43:56.350Z,99403.72
2022-10-20T16:46:25.226Z,99404.03
2022-10-20T16:48:51.742Z,99397.16
2022-10-20T16:51:18.288Z,99409.84
2022-10-20T16:53:44.748Z,99411.81
2022-10-20T16:56:15.219Z,99408.44
2022-10-20T16:58:44.728Z,99400.59
2022-10-20T17:01:12.440Z,99416.69
2022-10-20T17:06:16.020Z,99399.34
2022-10-20T17:08:42.676Z,99386.31
2022-10-20T17:11:11.353Z,99388.97
2022-10-20T17:13:38.259Z,99381.13
2022-10-20T17:16:05.957Z,99379.59
2022-10-20T17:18:32.818Z,99378.75
2022-10-20T17:20:59.314Z,99389.50
2022-10-20T17:23:25.776Z,99399.28
2022-10-20T17:25:52.688Z,99389.66
2022-10-20T17:28:19.799Z,99385.28
2022-10-20T17:30:47.243Z,99380.97
2022-10-20T17:33:14.305Z,99377.50
2022-10-20T17:35:40.821Z,99388.94
2022-10-20T17:38:07.323Z,99387.25
2022-10-20T17:40:37.554Z,99389.06
2022-10-20T17:43:04.046Z,99401.53
2022-10-20T17:45:32.866Z,99386.53
2022-10-20T17:48:01.494Z,99394.50
2022-10-20T17:50:27.888Z,99391.03
2022-10-20T17:52:54.368Z,99384.03
2022-10-20T17:55:21.042Z,99374.38
2022-10-20T17:57:47.791Z,99378.00
2022-10-20T18:00:22.423Z,99378.97
2022-10-20T18:02:53.416Z,99377.31
2022-10-20T18:05:20.006Z,99367.81
2022-10-20T18:07:46.682Z,99375.78
2022-10-20T18:10:13.210Z,99375.03
2022-10-20T18:12:40.054Z,99378.56
2022-10-20T18:15:06.971Z,99380.59
2022-10-20T18:17:34.997Z,99384.25
2022-10-20T18:20:01.448Z,99386.19
2022-10-20T18:22:27.895Z,99373.88
2022-10-20T18:24:54.423Z,99381.16
2022-10-20T18:27:22.070Z,99378.63
2022-10-20T18:29:48.489Z,99377.91
2022-10-20T18:32:15.341Z,99375.25
2022-10-20T18:34:43.557Z,99370.06
2022-10-20T18:37:10.260Z,99371.88
2022-10-20T18:39:36.837Z,99366.69
2022-10-20T18:42:03.320Z,99362.34
2022-10-20T18:44:30.745Z,99366.00
2022-10-20T18:46:58.428Z,99365.13
2022-10-20T18:49:25.414Z,99369.59
2022-10-20T18:51:52.050Z,99378.41
2022-10-20T18:54:19.217Z,99369.59
2022-10-20T18:56:45.840Z,99366.00
2022-10-20T18:59:14.165Z,99368.63
2022-10-20T19:01:41.016Z,99367.78
2022-10-20T19:04:08.666Z,99371.28
2022-10-20T19:06:37.086Z,99362.47
2022-10-20T19:09:08.141Z,99372.97
2022-10-20T19:11:35.511Z,99358.03
2022-10-20T19:14:02.228Z,99365.13
2022-10-20T19:16:30.163Z,99360.69
2022-10-20T19:18:57.674Z,99358.84
2022-10-20T19:21:25.127Z,99356.19
2022-10-20T19:23:53.615Z,99341.13
2022-10-20T19:26:20.217Z,99344.63
2022-10-20T19:28:56.087Z,99342.91
2022-10-20T19:31:36.323Z,99342.78
2022-10-20T19:34:05.927Z,99334.84
2022-10-20T19:36:33.099Z,99335.69
2022-10-20T19:38:59.663Z,99332.06
2022-10-20T19:41:26.474Z,99323.22
2022-10-20T19:43:53.041Z,99325.88
2022-10-20T19:46:20.206Z,99319.75
2022-10-20T19:48:47.524Z,99319.63
2022-10-20T19:51:15.025Z,99324.09
2022-10-20T19:53:41.671Z,99322.28
2022-10-20T19:56:09.399Z,99324.09
2022-10-20T19:58:36.655Z,99310.81
2022-10-20T20:01:04.008Z,99323.22
2022-10-20T20:03:31.192Z,99328.53
2022-10-20T20:05:58.899Z,99319.63
2022-10-20T20:08:25.524Z,99306.34
2022-10-20T20:10:52.617Z,99307.06
2022-10-20T20:13:19.059Z,99304.41
2022-10-20T20:15:45.491Z,99312.34
2022-10-20T20:18:13.682Z,99313.25
2022-10-20T20:20:41.047Z,99306.09
2022-10-20T20:23:07.590Z,99298.13
2022-10-20T20:25:37.867Z,99292.97
2022-10-20T20:28:04.832Z,99296.44
2022-10-20T20:30:32.476Z,99292.09
2022-10-20T20:32:59.696Z,99293.09
2022-10-20T20:35:26.359Z,99298.41
2022-10-20T20:37:52.913Z,99290.56
2022-10-20T20:40:20.206Z,99276.31
2022-10-20T20:42:47.061Z,99285.25
2022-10-20T20:45:14.436Z,99290.56
2022-10-20T20:47:40.928Z,99283.41
2022-10-20T20:50:07.623Z,99273.78
2022-10-20T20:52:34.092Z,99283.59
2022-10-20T20:55:00.497Z,99286.38
2022-10-20T20:57:28.910Z,99282.84
2022-10-20T20:59:55.415Z,99277.56
2022-10-20T21:02:21.882Z,99280.19
2022-10-20T21:04:48.317Z,99279.34
2022-10-20T21:07:14.924Z,99280.19
2022-10-20T21:09:41.427Z,99272.25
2022-10-20T21:12:07.942Z,99284.66
2022-10-20T21:14:34.427Z,99281.19
2022-10-20T21:17:01.086Z,99285.63
2022-10-20T21:19:27.543Z,99290.13
2022-10-20T21:22:01.391Z,99292.78
2022-10-20T21:24:28.024Z,99297.25
2022-10-20T21:26:54.579Z,99306.19
2022-10-20T21:29:21.082Z,99302.69
2022-10-20T21:31:47.484Z,99293.03
2022-10-20T21:34:13.946Z,99292.19
2022-10-20T21:36:40.491Z,99286.88
2022-10-20T21:39:08.565Z,99284.22
2022-10-20T21:41:36.151Z,99293.03
2022-10-20T21:44:03.550Z,99299.31
2022-10-20T21:46:31.922Z,99293.03
2022-10-20T21:48:59.587Z,99294.72
2022-10-20T21:51:27.098Z,99294.72
2022-10-20T21:54:06.905Z,99285.78
2022-10-20T21:59:05.459Z,99286.38
2022-10-20T22:01:32.258Z,99287.06
2022-10-20T22:03:59.141Z,99284.28
2022-10-20T22:06:26.692Z,99297.31
2022-10-20T22:08:54.686Z,99295.47
2022-10-20T22:11:25.580Z,99290.03
2022-10-20T22:13:52.407Z,99294.25
2022-10-20T22:16:20.809Z,99286.16
2022-10-20T22:18:47.314Z,99279.03
2022-10-20T22:21:14.868Z,99289.53
2022-10-20T22:23:42.102Z,99285.88
2022-10-20T22:26:09.090Z,99283.09
2022-10-20T22:28:35.548Z,99282.97
2022-10-20T22:33:33.605Z,99282.13
2022-10-20T22:36:00.293Z,99275.00
2022-10-20T22:38:26.885Z,99277.66
2022-10-20T22:40:57.292Z,99272.34
2022-10-20T22:43:23.960Z,99268.00
2022-10-20T22:45:50.375Z,99262.69
2022-10-20T22:48:16.866Z,99253.06
2022-10-20T22:50:43.285Z,99261.16
2022-10-20T22:53:11.007Z,99252.38
2022-10-20T22:55:37.578Z,99257.66
2022-10-20T22:58:04.251Z,99260.31
2022-10-20T23:00:30.777Z,99257.81
2022-10-20T23:02:57.510Z,99262.13
2022-10-20T23:05:24.167Z,99258.63
2022-10-20T23:07:50.819Z,99252.38
2022-10-20T23:10:17.331Z,99250.66
2022-10-20T23:12:43.838Z,99254.16
2022-10-20T23:15:10.534Z,99257.66
2022-10-20T23:17:37.815Z,99256.69
2022-10-20T23:20:04.686Z,99253.19
2022-10-20T23:22:31.208Z,99256.56
2022-10-20T23:24:57.740Z,99253.78
2022-10-20T23:27:24.381Z,99246.50
2022-10-20T23:29:50.841Z,99250.56
2022-10-20T23:32:17.335Z,99248.63
2022-10-20T23:34:43.858Z,99240.66
2022-10-20T23:37:10.305Z,99245.66
2022-10-20T23:39:36.973Z,99249.03
2022-10-20T23:42:06.449Z,99238.28
2022-10-20T23:44:34.442Z,99239.84
2022-10-20T23:47:00.880Z,99239.69
2022-10-20T23:49:27.618Z,99233.41
2022-10-20T23:51:54.144Z,99226.00
2022-10-20T23:54:20.637Z,99219.69
2022-10-20T23:56:47.116Z,99222.34
2022-10-20T23:59:13.656Z,99221.41
